createdAt,value
2023-04-18T00:07:45.642Z,29.60
2023-04-18T00:18:22.287Z,27.13
2023-04-18T00:28:29.759Z,25.03
2023-04-18T00:38:32.335Z,25.37
2023-04-18T00:48:36.809Z,27.57
2023-04-18T00:58:41.351Z,31.33
2023-04-18T01:08:45.865Z,24.10
2023-04-18T01:18:54.977Z,23.17
2023-04-18T01:28:57.501Z,25.30
2023-04-18T01:39:00.328Z,28.33
2023-04-18T01:49:06.022Z,24.33
2023-04-18T01:59:10.622Z,25.40
2023-04-18T02:09:13.820Z,24.30
2023-04-18T02:19:18.379Z,27.40
2023-04-18T02:29:22.931Z,23.30
2023-04-18T02:39:25.363Z,29.27
2023-04-18T02:49:27.657Z,25.10
2023-04-18T02:59:29.907Z,31.33
2023-04-18T03:09:54.827Z,32.73
2023-04-18T03:20:04.766Z,32.83
2023-04-18T03:30:08.217Z,29.17
2023-04-18T03:40:14.951Z,29.27
2023-04-18T03:50:24.638Z,29.43
2023-04-18T04:00:29.776Z,28.47
2023-04-18T04:10:41.043Z,27.63
2023-04-18T04:20:53.195Z,27.33
2023-04-18T04:31:10.811Z,26.77
2023-04-18T04:41:21.161Z,27.97
2023-04-18T04:51:26.456Z,28.63
2023-04-18T05:01:31.147Z,28.63
2023-04-18T05:11:36.786Z,26.27
2023-04-18T05:21:39.006Z,27.80
2023-04-18T05:31:44.243Z,26.17
2023-04-18T05:41:47.738Z,24.90
2023-04-18T05:51:56.761Z,25.80
2023-04-18T06:02:13.530Z,21.63
2023-04-18T06:12:17.704Z,23.53
2023-04-18T06:22:36.209Z,22.53
2023-04-18T06:32:39.004Z,21.52
2023-04-18T06:42:42.760Z,24.23
2023-04-18T06:52:45.890Z,23.17
2023-04-18T07:02:48.619Z,24.27
2023-04-18T07:12:53.192Z,23.23
2023-04-18T07:22:55.564Z,21.33
2023-04-18T07:32:57.842Z,19.87
2023-04-18T07:43:00.053Z,21.52
2023-04-18T07:53:05.033Z,23.27
2023-04-18T08:03:10.705Z,20.90
2023-04-18T08:13:15.222Z,18.10
2023-04-18T08:23:18.852Z,17.70
2023-04-18T08:33:22.790Z,17.13
2023-04-18T08:43:31.458Z,14.25
2023-04-18T08:53:34.632Z,14.00
2023-04-18T09:03:43.454Z,7.57
2023-04-18T09:13:50.648Z,15.95
2023-04-18T09:24:18.665Z,17.55
2023-04-18T09:34:32.469Z,13.25
2023-04-18T09:44:38.902Z,15.68
2023-04-18T09:54:41.225Z,18.30
2023-04-18T10:04:48.321Z,12.73
2023-04-18T10:14:58.345Z,11.90
2023-04-18T10:25:00.950Z,15.93
2023-04-18T10:35:07.621Z,14.75
2023-04-18T10:45:23.556Z,9.55
2023-04-18T10:55:31.060Z,13.93
2023-04-18T11:05:33.381Z,13.13
2023-04-18T11:15:37.311Z,16.42
2023-04-18T11:25:45.138Z,16.60
2023-04-18T11:35:49.898Z,13.10
2023-04-18T11:45:59.673Z,13.52
2023-04-18T11:56:04.351Z,14.60
2023-04-18T12:06:06.980Z,12.75
2023-04-18T12:16:12.628Z,11.45
2023-04-18T12:26:24.031Z,14.68
2023-04-18T12:36:29.061Z,13.07
2023-04-18T12:46:31.756Z,9.93
2023-04-18T12:56:36.618Z,10.55
2023-04-18T13:06:41.326Z,11.32
2023-04-18T13:16:46.806Z,11.45
2023-04-18T13:26:53.516Z,10.85
2023-04-18T13:36:58.895Z,9.18
2023-04-18T13:47:03.054Z,12.30
2023-04-18T13:57:12.005Z,9.02
2023-04-18T14:07:19.558Z,8.48
2023-04-18T14:17:25.300Z,10.70
2023-04-18T14:27:29.411Z,7.00
2023-04-18T14:37:31.817Z,7.75
2023-04-18T14:47:35.095Z,8.75
2023-04-18T14:57:41.292Z,6.85
2023-04-18T15:07:48.354Z,5.70
2023-04-18T15:17:52.897Z,6.43
2023-04-18T15:27:56.180Z,5.72
2023-04-18T15:38:00.929Z,5.30
2023-04-18T15:48:07.123Z,4.95
2023-04-18T15:58:10.274Z,5.07
2023-04-18T16:08:16.145Z,4.75
2023-04-18T16:18:21.676Z,5.47
2023-04-18T16:28:25.120Z,5.57
2023-04-18T16:38:29.671Z,6.18
2023-04-18T16:48:37.258Z,7.10
2023-04-18T16:58:39.583Z,7.38
2023-04-18T17:08:49.195Z,6.18
2023-04-18T17:18:54.437Z,6.55
2023-04-18T17:28:56.663Z,7.85
2023-04-18T17:39:06.589Z,5.82
2023-04-18T17:49:11.590Z,8.13
2023-04-18T17:59:14.435Z,6.97
2023-04-18T18:09:19.962Z,10.80
2023-04-18T18:19:24.535Z,9.73
2023-04-18T18:29:31.667Z,6.50
2023-04-18T18:39:38.694Z,6.68
2023-04-18T18:49:48.972Z,6.57
2023-04-18T18:59:51.794Z,9.10
2023-04-18T19:09:55.580Z,8.35
2023-04-18T19:20:04.455Z,8.35
2023-04-18T19:30:12.209Z,7.32
2023-04-18T19:40:15.965Z,9.63
2023-04-18T19:50:19.592Z,9.57
2023-04-18T20:00:25.685Z,7.43
2023-04-18T20:10:27.975Z,6.95
2023-04-18T20:20:39.642Z,7.97
2023-04-18T20:30:54.318Z,6.78
2023-04-18T20:40:59.055Z,5.35
2023-04-18T20:51:03.674Z,6.43
2023-04-18T21:01:10.589Z,5.35
2023-04-18T21:11:13.022Z,8.60
2023-04-18T21:21:16.172Z,8.75
2023-04-18T21:31:19.713Z,8.32
2023-04-18T21:41:26.158Z,6.50
2023-04-18T21:51:29.802Z,7.65
2023-04-18T22:01:34.688Z,7.47
2023-04-18T22:11:41.615Z,7.43
2023-04-18T22:21:47.526Z,6.38
2023-04-18T22:31:53.636Z,7.78
2023-04-18T22:41:59.458Z,9.23
2023-04-18T22:52:02.579Z,7.90
2023-04-18T23:02:12.990Z,6.75
2023-04-18T23:12:18.897Z,8.27
2023-04-18T23:22:27.075Z,6.13
2023-04-18T23:32:33.384Z,6.53
2023-04-18T23:42:42.484Z,10.70
2023-04-18T23:52:50.270Z,8.18
